createdAt,value
2023-09-28T00:00:05.860Z,13.38
2023-09-28T00:01:12.633Z,13.13
2023-09-28T00:02:15.564Z,13.19
2023-09-28T00:03:18.547Z,13.13
2023-09-28T00:04:21.612Z,13.69
2023-09-28T00:05:25.160Z,13.69
2023-09-28T00:06:28.111Z,12.94
2023-09-28T00:07:31.008Z,13.13
2023-09-28T00:08:35.778Z,12.88
2023-09-28T00:09:38.297Z,11.38
2023-09-28T00:10:41.286Z,12.81
2023-09-28T00:11:44.231Z,5.87
2023-09-28T00:12:48.156Z,13.25
2023-09-28T00:13:52.335Z,13.94
2023-09-28T00:14:55.391Z,13.75
2023-09-28T00:15:58.568Z,11.94
2023-09-28T00:17:02.888Z,13.75
2023-09-28T00:18:05.886Z,13.62
2023-09-28T00:19:08.862Z,14.31
2023-09-28T00:20:14.005Z,12.00
2023-09-28T00:21:16.881Z,13.69
2023-09-28T00:22:19.886Z,13.25
2023-09-28T00:23:22.745Z,16.44
2023-09-28T00:24:25.943Z,15.44
2023-09-28T00:25:29.163Z,13.69
2023-09-28T00:26:32.124Z,12.25
2023-09-28T00:27:35.060Z,14.87
2023-09-28T00:28:38.034Z,13.62
2023-09-28T00:29:43.788Z,14.69
2023-09-28T00:30:46.793Z,13.31
2023-09-28T00:31:49.836Z,15.19
2023-09-28T00:32:53.970Z,13.88
2023-09-28T00:33:57.027Z,14.56
2023-09-28T00:34:59.902Z,13.50
2023-09-28T00:36:02.924Z,13.81
2023-09-28T00:37:05.941Z,13.00
2023-09-28T00:38:08.864Z,13.69
2023-09-28T00:39:12.835Z,12.88
2023-09-28T00:40:16.139Z,13.94
2023-09-28T00:41:19.403Z,16.44
2023-09-28T00:42:24.123Z,16.87
2023-09-28T00:43:27.624Z,15.13
2023-09-28T00:44:30.530Z,15.07
2023-09-28T00:45:35.170Z,14.75
2023-09-28T00:46:38.580Z,16.50
2023-09-28T00:47:42.107Z,15.13
2023-09-28T00:48:49.763Z,14.00
2023-09-28T00:49:53.289Z,13.19
2023-09-28T00:50:56.250Z,14.94
2023-09-28T00:51:59.189Z,14.56
2023-09-28T00:53:03.975Z,17.19
2023-09-28T00:54:07.142Z,12.75
2023-09-28T00:55:11.187Z,15.44
2023-09-28T00:56:14.196Z,14.94
2023-09-28T00:57:17.185Z,13.38
2023-09-28T00:58:20.298Z,14.81
2023-09-28T00:59:24.191Z,13.62
2023-09-28T01:00:27.349Z,14.00
2023-09-28T01:01:30.506Z,15.88
2023-09-28T01:02:33.455Z,15.56
2023-09-28T01:03:36.480Z,14.44
2023-09-28T01:04:39.882Z,13.62
2023-09-28T01:05:42.842Z,15.88
2023-09-28T01:06:45.765Z,16.25
2023-09-28T01:07:48.773Z,14.75
2023-09-28T01:08:52.209Z,15.94
2023-09-28T01:09:55.255Z,15.27
2023-09-28T01:10:58.264Z,15.38
2023-09-28T01:12:01.063Z,15.50
2023-09-28T01:13:04.434Z,14.75
2023-09-28T01:14:07.330Z,15.81
2023-09-28T01:15:11.940Z,14.69
2023-09-28T01:16:14.912Z,14.63
2023-09-28T01:17:17.849Z,16.00
2023-09-28T01:18:21.526Z,13.50
2023-09-28T01:19:24.669Z,14.31
2023-09-28T01:20:27.588Z,15.19
2023-09-28T01:21:30.597Z,14.00
2023-09-28T01:22:33.461Z,16.12
2023-09-28T01:23:37.808Z,13.88
2023-09-28T01:24:40.732Z,16.31
2023-09-28T01:25:43.686Z,15.06
2023-09-28T01:26:46.685Z,14.56
2023-09-28T01:27:49.737Z,13.13
2023-09-28T01:28:52.725Z,16.50
2023-09-28T01:29:55.607Z,16.37
2023-09-28T01:30:58.663Z,15.31
2023-09-28T01:32:02.857Z,16.56
2023-09-28T01:33:05.713Z,15.44
2023-09-28T01:34:08.661Z,13.25
2023-09-28T01:35:11.639Z,15.88
2023-09-28T01:36:15.080Z,17.56
2023-09-28T01:37:19.568Z,12.75
2023-09-28T01:38:26.897Z,19.19
2023-09-28T01:39:31.090Z,17.25
2023-09-28T01:40:34.124Z,15.13
2023-09-28T01:41:37.067Z,14.13
2023-09-28T01:42:41.548Z,15.56
2023-09-28T01:43:44.450Z,16.25
2023-09-28T01:44:47.360Z,15.13
2023-09-28T01:45:50.287Z,16.12
2023-09-28T01:46:53.260Z,17.50
2023-09-28T01:47:56.252Z,18.75
2023-09-28T01:48:59.248Z,16.81
2023-09-28T01:50:02.670Z,15.50
2023-09-28T01:51:05.762Z,16.50
2023-09-28T01:52:08.681Z,13.00
2023-09-28T01:53:11.558Z,14.56
2023-09-28T01:54:14.495Z,16.94
2023-09-28T01:55:17.331Z,16.93
2023-09-28T01:56:20.253Z,17.69
2023-09-28T01:57:23.127Z,17.75
2023-09-28T01:58:26.848Z,18.19
2023-09-28T01:59:32.207Z,17.94
2023-09-28T02:00:36.021Z,17.19
2023-09-28T02:01:39.028Z,17.37
2023-09-28T02:02:43.298Z,17.00
2023-09-28T02:03:46.340Z,16.69
2023-09-28T02:04:49.309Z,18.12
2023-09-28T02:05:52.410Z,15.38
2023-09-28T02:06:55.427Z,16.00
2023-09-28T02:07:58.456Z,17.87
2023-09-28T02:09:01.390Z,17.73
2023-09-28T02:10:04.525Z,18.94
2023-09-28T02:11:07.529Z,18.56
2023-09-28T02:12:12.221Z,15.38
2023-09-28T02:13:15.049Z,18.75
2023-09-28T02:14:17.968Z,19.12
2023-09-28T02:15:20.932Z,17.25
2023-09-28T02:16:23.929Z,17.56
2023-09-28T02:17:28.415Z,18.62
2023-09-28T02:18:31.399Z,18.75
2023-09-28T02:19:34.265Z,16.25
2023-09-28T02:20:37.256Z,18.37
2023-09-28T02:21:40.129Z,17.75
2023-09-28T02:22:43.685Z,18.56
2023-09-28T02:23:46.666Z,16.25
2023-09-28T02:24:49.882Z,19.62
2023-09-28T02:25:52.886Z,17.37
2023-09-28T02:26:55.816Z,18.69
2023-09-28T02:27:58.670Z,18.81
2023-09-28T02:29:01.766Z,18.06
2023-09-28T02:30:04.967Z,18.12
2023-09-28T02:31:08.771Z,18.93
2023-09-28T02:32:13.202Z,19.19
2023-09-28T02:33:16.183Z,14.06
2023-09-28T02:34:19.190Z,19.12
2023-09-28T02:35:22.065Z,18.94
2023-09-28T02:36:24.977Z,19.19
2023-09-28T02:37:30.387Z,19.44
2023-09-28T02:38:33.346Z,18.50
2023-09-28T02:39:36.709Z,17.93
2023-09-28T02:40:39.888Z,18.31
2023-09-28T02:41:44.434Z,17.00
2023-09-28T02:42:47.637Z,17.44
2023-09-28T02:43:50.509Z,19.19
2023-09-28T02:44:53.393Z,18.37
2023-09-28T02:45:56.440Z,18.81
2023-09-28T02:46:59.538Z,19.12
2023-09-28T02:48:03.624Z,21.06
2023-09-28T02:49:06.569Z,19.87
2023-09-28T02:50:10.508Z,18.00
2023-09-28T02:51:13.495Z,19.75
2023-09-28T02:52:16.740Z,19.31
2023-09-28T02:53:19.678Z,18.37
2023-09-28T02:54:22.639Z,18.00
2023-09-28T02:55:27.046Z,17.25
2023-09-28T02:56:29.994Z,19.56
2023-09-28T02:57:33.043Z,21.31
2023-09-28T02:58:35.907Z,19.07
2023-09-28T02:59:38.792Z,19.06
2023-09-28T03:00:41.772Z,19.81
2023-09-28T03:01:44.723Z,18.06
2023-09-28T03:02:48.044Z,20.50
2023-09-28T03:03:50.980Z,18.81
2023-09-28T03:04:54.189Z,20.31
2023-09-28T03:05:57.040Z,19.31
2023-09-28T03:06:59.945Z,20.06
2023-09-28T03:08:02.975Z,18.87
2023-09-28T03:09:05.858Z,19.44
2023-09-28T03:10:13.092Z,19.00
2023-09-28T03:11:15.911Z,18.50
2023-09-28T03:12:18.822Z,18.73
2023-09-28T03:13:21.755Z,20.81
2023-09-28T03:14:24.676Z,20.67
2023-09-28T03:15:28.279Z,20.25
2023-09-28T03:16:32.729Z,20.06
2023-09-28T03:17:35.685Z,19.00
2023-09-28T03:18:39.176Z,21.06
2023-09-28T03:19:42.002Z,17.93
2023-09-28T03:20:44.916Z,18.50
2023-09-28T03:21:47.758Z,19.62
2023-09-28T03:22:51.102Z,19.62
2023-09-28T03:23:54.574Z,19.94
2023-09-28T03:24:57.548Z,18.87
2023-09-28T03:26:00.458Z,17.62
2023-09-28T03:27:10.590Z,19.87
2023-09-28T03:28:07.838Z,18.50
2023-09-28T03:29:10.681Z,20.00
2023-09-28T03:30:14.655Z,18.62
2023-09-28T03:31:17.578Z,20.06
2023-09-28T03:32:20.547Z,20.56
2023-09-28T03:33:23.600Z,19.94
2023-09-28T03:34:26.514Z,19.31
2023-09-28T03:35:29.414Z,19.31
2023-09-28T03:36:34.746Z,19.19
2023-09-28T03:37:38.106Z,19.56
2023-09-28T03:38:41.013Z,19.31
2023-09-28T03:39:44.049Z,20.06
2023-09-28T03:40:47.225Z,18.62
2023-09-28T03:41:50.141Z,21.06
2023-09-28T03:42:53.854Z,19.62
2023-09-28T03:43:57.050Z,19.50
2023-09-28T03:45:00.272Z,18.00
2023-09-28T03:46:03.273Z,19.75
2023-09-28T03:47:06.219Z,20.62
2023-09-28T03:48:09.203Z,19.87
2023-09-28T03:49:14.056Z,21.47
2023-09-28T03:50:16.685Z,22.44
2023-09-28T03:51:19.640Z,22.75
2023-09-28T03:52:22.539Z,21.37
2023-09-28T03:53:25.440Z,18.06
2023-09-28T03:54:28.404Z,20.53
2023-09-28T03:55:31.447Z,19.31
2023-09-28T03:56:35.504Z,16.44
2023-09-28T03:57:40.607Z,20.88
2023-09-28T03:58:43.726Z,18.81
2023-09-28T03:59:46.597Z,20.88
2023-09-28T04:00:49.634Z,20.56
2023-09-28T04:01:52.667Z,20.62
2023-09-28T04:02:56.086Z,20.33
2023-09-28T04:04:00.325Z,22.13
2023-09-28T04:05:03.206Z,21.62
2023-09-28T04:06:06.298Z,21.00
2023-09-28T04:07:09.289Z,19.87
2023-09-28T04:08:12.258Z,20.12
2023-09-28T04:09:15.222Z,20.44
2023-09-28T04:10:20.614Z,19.44
2023-09-28T04:11:22.888Z,20.44
2023-09-28T04:12:25.705Z,18.56
2023-09-28T04:13:28.526Z,19.27
2023-09-28T04:14:31.408Z,18.69
2023-09-28T04:15:34.395Z,20.25
2023-09-28T04:16:37.359Z,8.81
2023-09-28T04:17:43.729Z,20.06
2023-09-28T04:18:46.484Z,20.06
2023-09-28T04:19:49.353Z,20.75
2023-09-28T04:20:52.289Z,18.44
2023-09-28T04:21:55.212Z,19.13
2023-09-28T04:22:58.086Z,20.19
2023-09-28T04:24:01.073Z,20.19
2023-09-28T04:25:04.164Z,20.69
2023-09-28T04:26:07.381Z,20.44
2023-09-28T04:27:10.368Z,15.81
2023-09-28T04:28:14.519Z,21.12
2023-09-28T04:29:17.510Z,20.31
2023-09-28T04:30:23.421Z,18.75
2023-09-28T04:31:25.289Z,19.50
2023-09-28T04:32:28.405Z,20.44
2023-09-28T04:33:33.393Z,19.81
2023-09-28T04:34:36.333Z,19.50
2023-09-28T04:35:41.455Z,19.94
2023-09-28T04:36:44.378Z,19.12
2023-09-28T04:37:47.348Z,19.87
2023-09-28T04:38:50.264Z,17.25
2023-09-28T04:39:53.214Z,19.50
2023-09-28T04:40:56.269Z,18.81
2023-09-28T04:41:59.120Z,19.56
2023-09-28T04:43:02.099Z,20.06
2023-09-28T04:44:07.927Z,19.94
2023-09-28T04:45:10.904Z,19.20
2023-09-28T04:46:14.157Z,19.81
2023-09-28T04:47:17.406Z,21.50
2023-09-28T04:48:20.677Z,20.00
2023-09-28T04:49:23.737Z,22.37
2023-09-28T04:50:29.107Z,20.81
2023-09-28T04:51:31.962Z,20.81
2023-09-28T04:52:34.842Z,18.87
2023-09-28T04:53:37.889Z,19.44
2023-09-28T04:54:41.097Z,21.25
2023-09-28T04:55:44.029Z,20.69
2023-09-28T04:56:48.708Z,21.69
2023-09-28T04:57:51.628Z,21.12
2023-09-28T04:58:54.743Z,20.75
2023-09-28T04:59:57.831Z,18.56
2023-09-28T05:01:00.902Z,20.06
2023-09-28T05:02:05.104Z,20.37
2023-09-28T05:03:08.154Z,20.56
2023-09-28T05:04:11.194Z,19.25
2023-09-28T05:05:18.696Z,21.00
2023-09-28T05:06:20.400Z,21.25
2023-09-28T05:07:25.081Z,18.37
2023-09-28T05:08:28.236Z,15.81
2023-09-28T05:09:31.301Z,19.87
2023-09-28T05:10:34.267Z,20.94
2023-09-28T05:11:37.217Z,20.19
2023-09-28T05:12:40.689Z,21.12
2023-09-28T05:13:43.591Z,19.25
2023-09-28T05:14:46.534Z,20.44
2023-09-28T05:15:50.593Z,21.62
2023-09-28T05:16:53.866Z,19.81
2023-09-28T05:17:56.777Z,21.53
2023-09-28T05:18:59.824Z,20.12
2023-09-28T05:20:02.869Z,21.50
2023-09-28T05:21:07.619Z,20.75
2023-09-28T05:22:10.560Z,20.31
2023-09-28T05:23:15.796Z,20.94
2023-09-28T05:24:17.905Z,17.37
2023-09-28T05:25:21.021Z,21.44
2023-09-28T05:26:23.943Z,21.73
2023-09-28T05:27:26.825Z,21.87
2023-09-28T05:28:31.399Z,21.44
2023-09-28T05:29:35.643Z,20.62
2023-09-28T05:30:38.953Z,20.94
2023-09-28T05:31:43.269Z,21.12
2023-09-28T05:32:46.286Z,20.56
2023-09-28T05:33:49.224Z,22.75
2023-09-28T05:34:52.225Z,22.44
2023-09-28T05:35:55.083Z,21.40
2023-09-28T05:36:58.019Z,21.25
2023-09-28T05:38:00.920Z,21.50
2023-09-28T05:39:03.907Z,18.69
2023-09-28T05:40:07.341Z,22.44
2023-09-28T05:41:10.204Z,20.94
2023-09-28T05:42:13.303Z,18.56
2023-09-28T05:43:16.153Z,22.13
2023-09-28T05:44:19.111Z,21.53
2023-09-28T05:45:22.192Z,21.37
2023-09-28T05:46:27.650Z,21.94
2023-09-28T05:47:29.704Z,22.40
2023-09-28T05:48:32.688Z,21.56
2023-09-28T05:49:37.551Z,21.69
2023-09-28T05:50:40.075Z,22.00
2023-09-28T05:51:44.508Z,21.31
2023-09-28T05:52:47.464Z,21.44
2023-09-28T05:53:52.438Z,21.37
2023-09-28T05:54:55.771Z,21.44
2023-09-28T05:55:58.845Z,20.56
2023-09-28T05:57:01.855Z,20.67
2023-09-28T05:58:04.875Z,20.44
2023-09-28T05:59:07.803Z,21.69
2023-09-28T06:00:11.669Z,20.81
2023-09-28T06:01:16.140Z,21.00
2023-09-28T06:02:20.522Z,19.56
2023-09-28T06:03:26.932Z,20.31
2023-09-28T06:04:29.963Z,18.87
2023-09-28T06:05:32.889Z,20.25
2023-09-28T06:06:36.051Z,21.00
2023-09-28T06:07:39.051Z,20.25
2023-09-28T06:08:42.161Z,20.87
2023-09-28T06:09:45.137Z,19.62
2023-09-28T06:10:51.133Z,19.75
2023-09-28T06:11:54.240Z,20.87
2023-09-28T06:12:57.322Z,20.19
2023-09-28T06:14:08.216Z,19.44
2023-09-28T06:15:06.252Z,20.50
2023-09-28T06:16:11.314Z,19.37
2023-09-28T06:17:14.492Z,19.44
2023-09-28T06:18:17.467Z,21.00
2023-09-28T06:19:20.880Z,18.44
2023-09-28T06:20:23.899Z,17.69
2023-09-28T06:21:26.911Z,20.12
2023-09-28T06:22:29.777Z,16.31
2023-09-28T06:23:39.278Z,19.25
2023-09-28T06:24:40.087Z,19.62
2023-09-28T06:25:43.085Z,19.69
2023-09-28T06:26:48.003Z,19.00
2023-09-28T06:27:50.560Z,19.75
2023-09-28T06:28:53.729Z,21.00
2023-09-28T06:29:56.988Z,16.31
2023-09-28T06:31:01.173Z,19.06
2023-09-28T06:32:04.232Z,18.94
2023-09-28T06:33:07.354Z,18.50
2023-09-28T06:34:10.359Z,18.81
2023-09-28T06:35:13.248Z,18.37
2023-09-28T06:36:30.272Z,18.56
2023-09-28T06:37:21.738Z,18.06
2023-09-28T06:38:24.610Z,17.62
2023-09-28T06:39:27.629Z,18.94
2023-09-28T06:40:30.697Z,18.81
2023-09-28T06:41:33.566Z,17.81
2023-09-28T06:42:37.679Z,18.25
2023-09-28T06:43:41.030Z,19.44
2023-09-28T06:44:43.949Z,19.06
2023-09-28T06:45:49.267Z,18.56
2023-09-28T06:46:52.367Z,18.31
2023-09-28T06:48:08.969Z,18.81
2023-09-28T06:48:59.957Z,18.06
2023-09-28T06:50:04.168Z,16.87
2023-09-28T06:51:07.240Z,19.00
2023-09-28T06:52:10.270Z,18.37
2023-09-28T06:53:13.366Z,18.69
2023-09-28T06:54:16.800Z,19.00
2023-09-28T06:55:21.164Z,16.12
2023-09-28T06:56:24.119Z,19.25
2023-09-28T06:57:27.208Z,17.56
2023-09-28T06:58:30.198Z,15.69
2023-09-28T06:59:33.225Z,19.00
2023-09-28T07:00:37.670Z,18.12
2023-09-28T07:01:40.784Z,19.81
2023-09-28T07:02:45.269Z,18.56
2023-09-28T07:03:49.413Z,21.56
2023-09-28T07:04:56.191Z,18.81
2023-09-28T07:05:59.049Z,18.94
2023-09-28T07:07:02.081Z,18.75
2023-09-28T07:08:05.330Z,19.19
2023-09-28T07:09:08.409Z,16.00
2023-09-28T07:10:12.980Z,19.62
2023-09-28T07:11:15.967Z,19.75
2023-09-28T07:12:19.002Z,19.06
2023-09-28T07:13:21.863Z,19.50
2023-09-28T07:14:26.031Z,19.37
2023-09-28T07:15:29.553Z,20.25
2023-09-28T07:16:32.777Z,20.50
2023-09-28T07:17:36.160Z,19.12
2023-09-28T07:18:39.373Z,20.25
2023-09-28T07:19:42.373Z,20.19
2023-09-28T07:20:45.610Z,19.06
2023-09-28T07:21:48.630Z,19.37
2023-09-28T07:22:51.755Z,18.87
2023-09-28T07:24:01.834Z,14.94
2023-09-28T07:25:03.346Z,18.56
2023-09-28T07:26:16.794Z,16.31
2023-09-28T07:27:19.820Z,15.75
2023-09-28T07:28:24.893Z,19.00
2023-09-28T07:29:27.882Z,17.19
2023-09-28T07:30:30.919Z,10.94
2023-09-28T07:31:33.779Z,16.75
2023-09-28T07:32:37.205Z,18.69
2023-09-28T07:33:40.595Z,18.81
2023-09-28T07:34:47.126Z,17.12
2023-09-28T07:35:51.937Z,17.25
2023-09-28T07:36:54.992Z,18.31
2023-09-28T07:38:00.527Z,17.44
2023-09-28T07:39:02.668Z,16.62
2023-09-28T07:40:07.613Z,16.00
2023-09-28T07:41:10.639Z,15.63
2023-09-28T07:42:14.334Z,18.31
2023-09-28T07:43:18.025Z,17.00
2023-09-28T07:44:20.963Z,17.37
2023-09-28T07:45:23.892Z,17.69
2023-09-28T07:46:26.958Z,18.25
2023-09-28T07:47:29.952Z,15.69
2023-09-28T07:48:33.002Z,15.63
2023-09-28T07:49:39.006Z,17.56
2023-09-28T07:50:47.126Z,12.56
2023-09-28T07:51:49.978Z,13.69
2023-09-28T07:52:52.889Z,14.81
2023-09-28T07:53:55.995Z,14.75
2023-09-28T07:54:59.005Z,13.94
2023-09-28T07:56:01.925Z,15.94
2023-09-28T07:57:05.372Z,13.44
2023-09-28T07:58:25.332Z,15.38
2023-09-28T07:59:12.874Z,16.19
2023-09-28T08:00:16.041Z,14.25
2023-09-28T08:01:21.611Z,13.50
2023-09-28T08:02:24.578Z,11.88
2023-09-28T08:03:27.486Z,13.06
2023-09-28T08:04:32.100Z,14.63
2023-09-28T08:05:35.249Z,14.25
2023-09-28T08:06:38.340Z,13.81
2023-09-28T08:07:42.100Z,14.31
2023-09-28T08:08:45.812Z,12.75
2023-09-28T08:09:48.786Z,13.38
2023-09-28T08:10:51.869Z,11.06
2023-09-28T08:11:54.753Z,14.06
2023-09-28T08:12:57.703Z,12.81
2023-09-28T08:14:00.656Z,12.81
2023-09-28T08:15:04.320Z,14.06
2023-09-28T08:16:10.343Z,13.31
2023-09-28T08:17:13.335Z,12.31
2023-09-28T08:18:16.290Z,13.75
2023-09-28T08:19:19.153Z,11.75
2023-09-28T08:20:23.889Z,13.25
2023-09-28T08:21:26.895Z,11.75
2023-09-28T08:22:29.847Z,13.25
2023-09-28T08:23:32.892Z,14.31
2023-09-28T08:24:35.743Z,14.44
2023-09-28T08:25:38.563Z,12.31
2023-09-28T08:26:41.600Z,11.50
2023-09-28T08:27:45.736Z,11.44
2023-09-28T08:28:48.671Z,9.88
2023-09-28T08:29:51.596Z,12.63
2023-09-28T08:30:57.559Z,13.81
2023-09-28T08:31:59.733Z,12.50
2023-09-28T08:33:03.318Z,12.56
2023-09-28T08:34:06.533Z,12.25
2023-09-28T08:35:13.423Z,10.50
2023-09-28T08:36:20.240Z,11.19
2023-09-28T08:37:23.157Z,13.25
2023-09-28T08:38:26.058Z,12.63
2023-09-28T08:39:31.010Z,12.19
2023-09-28T08:40:33.611Z,13.19
2023-09-28T08:41:38.199Z,12.56
2023-09-28T08:42:43.552Z,12.56
2023-09-28T08:43:48.446Z,10.06
2023-09-28T08:44:52.888Z,10.81
2023-09-28T08:45:57.627Z,12.63
2023-09-28T08:47:01.091Z,12.69
2023-09-28T08:48:05.993Z,13.44
2023-09-28T08:49:09.360Z,14.31
2023-09-28T08:50:13.499Z,13.19
2023-09-28T08:51:19.907Z,11.75
2023-09-28T08:52:22.481Z,12.56
2023-09-28T08:53:25.896Z,11.69
2023-09-28T08:54:29.550Z,14.69
2023-09-28T08:55:34.100Z,15.69
2023-09-28T08:56:46.102Z,14.25
2023-09-28T08:57:49.170Z,14.06
2023-09-28T08:58:52.258Z,13.25
2023-09-28T08:59:57.704Z,10.00
2023-09-28T09:01:01.124Z,13.50
2023-09-28T09:02:04.479Z,13.62
2023-09-28T09:03:10.167Z,15.44
2023-09-28T09:04:12.949Z,13.06
2023-09-28T09:05:17.612Z,14.25
2023-09-28T09:06:24.095Z,13.13
2023-09-28T09:07:26.221Z,14.81
2023-09-28T09:08:30.650Z,14.44
2023-09-28T09:09:34.068Z,12.69
2023-09-28T09:10:38.563Z,15.69
2023-09-28T09:11:43.022Z,14.25
2023-09-28T09:12:45.980Z,14.25
2023-09-28T09:13:54.913Z,13.88
2023-09-28T09:14:56.709Z,13.31
2023-09-28T09:16:01.000Z,15.38
2023-09-28T09:17:05.655Z,15.63
2023-09-28T09:18:08.714Z,14.19
2023-09-28T09:19:15.598Z,14.56
2023-09-28T09:20:18.926Z,12.37
2023-09-28T09:21:22.369Z,14.25
2023-09-28T09:22:41.388Z,14.75
2023-09-28T09:23:31.792Z,14.06
2023-09-28T09:24:35.211Z,15.06
2023-09-28T09:25:45.321Z,14.13
2023-09-28T09:26:49.038Z,14.44
2023-09-28T09:27:52.061Z,13.31
2023-09-28T09:28:56.686Z,12.88
2023-09-28T09:30:01.372Z,15.44
2023-09-28T09:31:06.356Z,18.06
2023-09-28T09:32:09.521Z,15.56
2023-09-28T09:33:12.748Z,18.81
2023-09-28T09:34:16.813Z,19.75
2023-09-28T09:35:23.444Z,22.69
2023-09-28T09:36:28.613Z,18.06
2023-09-28T09:37:30.720Z,14.38
2023-09-28T09:38:33.700Z,16.37
2023-09-28T09:39:37.141Z,12.31
2023-09-28T09:40:40.244Z,12.94
2023-09-28T09:41:46.454Z,11.75
2023-09-28T09:42:49.453Z,12.19
2023-09-28T09:43:53.934Z,13.00
2023-09-28T09:44:59.403Z,11.88
2023-09-28T09:46:06.123Z,13.75
2023-09-28T09:47:10.821Z,13.62
2023-09-28T09:48:14.631Z,10.94
2023-09-28T09:49:17.843Z,10.69
2023-09-28T09:50:21.856Z,12.56
2023-09-28T09:51:25.482Z,11.25
2023-09-28T09:52:29.382Z,13.69
2023-09-28T09:53:32.846Z,13.13
2023-09-28T09:54:36.493Z,12.69
2023-09-28T09:55:42.703Z,11.88
2023-09-28T09:56:47.086Z,13.00
2023-09-28T09:57:50.296Z,10.19
2023-09-28T09:58:54.822Z,12.25
2023-09-28T09:59:59.993Z,12.37
2023-09-28T10:01:03.726Z,14.00
2023-09-28T10:02:08.534Z,8.25
2023-09-28T10:03:11.998Z,9.00
2023-09-28T10:04:18.705Z,11.75
2023-09-28T10:05:23.548Z,8.06
2023-09-28T10:06:27.087Z,9.44
2023-09-28T10:07:46.517Z,14.56
2023-09-28T10:08:36.249Z,10.81
2023-09-28T10:09:40.625Z,11.69
2023-09-28T10:10:45.184Z,12.00
2023-09-28T10:11:48.700Z,13.81
2023-09-28T10:12:51.794Z,11.69
2023-09-28T10:13:54.972Z,10.06
2023-09-28T10:14:59.818Z,10.69
2023-09-28T10:16:04.496Z,8.56
2023-09-28T10:17:07.905Z,9.63
2023-09-28T10:18:11.235Z,9.38
2023-09-28T10:19:19.897Z,9.50
2023-09-28T10:20:23.203Z,9.94
2023-09-28T10:21:26.477Z,9.75
2023-09-28T10:22:29.411Z,9.00
2023-09-28T10:23:32.369Z,10.13
2023-09-28T10:24:35.371Z,11.38
2023-09-28T10:25:39.805Z,5.50
2023-09-28T10:26:51.101Z,10.81
2023-09-28T10:27:55.811Z,9.00
2023-09-28T10:29:02.324Z,9.63
2023-09-28T10:30:21.543Z,10.94
2023-09-28T10:31:24.488Z,8.81
2023-09-28T10:32:30.905Z,8.31
2023-09-28T10:33:34.018Z,11.38
2023-09-28T10:34:36.901Z,11.12
2023-09-28T10:35:41.192Z,8.56
2023-09-28T10:36:44.357Z,10.63
2023-09-28T10:38:05.208Z,10.06
2023-09-28T10:39:14.729Z,17.50
2023-09-28T10:40:18.292Z,10.50
2023-09-28T10:41:24.595Z,41.37
2023-09-28T10:42:27.652Z,9.94
2023-09-28T10:43:31.385Z,10.25
2023-09-28T10:44:34.365Z,10.13
2023-09-28T10:47:03.361Z,8.50
2023-09-28T10:48:07.080Z,9.56
2023-09-28T10:49:17.673Z,9.56
2023-09-28T10:50:20.703Z,9.25
2023-09-28T10:51:23.653Z,10.13
2023-09-28T10:52:26.683Z,9.44
2023-09-28T10:53:29.568Z,8.94
2023-09-28T10:54:32.586Z,10.56
2023-09-28T10:55:36.739Z,9.25
2023-09-28T10:56:39.857Z,8.81
2023-09-28T10:57:44.319Z,8.81
2023-09-28T10:58:47.149Z,7.31
2023-09-28T10:59:52.832Z,9.81
2023-09-28T11:00:56.319Z,8.69
2023-09-28T11:02:02.034Z,10.00
2023-09-28T11:03:05.359Z,9.88
2023-09-28T11:04:08.620Z,9.31
2023-09-28T11:05:11.690Z,9.44
2023-09-28T11:06:15.137Z,8.81
2023-09-28T11:07:18.295Z,9.25
2023-09-28T11:08:24.669Z,10.13
2023-09-28T11:09:28.674Z,10.19
2023-09-28T11:10:31.759Z,10.75
2023-09-28T11:11:37.290Z,22.81
2023-09-28T11:12:41.868Z,9.25
2023-09-28T11:13:43.653Z,20.50
2023-09-28T11:14:46.509Z,19.44
2023-09-28T11:15:49.795Z,10.81
2023-09-28T11:16:53.015Z,10.69
2023-09-28T11:17:57.425Z,8.38
2023-09-28T11:19:00.626Z,8.38
2023-09-28T11:20:03.930Z,14.63
2023-09-28T11:21:06.851Z,9.50
2023-09-28T11:22:09.757Z,10.75
2023-09-28T11:23:12.793Z,10.50
2023-09-28T11:24:15.844Z,6.44
2023-09-28T11:25:30.446Z,9.00
2023-09-28T11:26:23.964Z,11.75
2023-09-28T11:27:46.905Z,13.50
2023-09-28T11:28:54.141Z,9.44
2023-09-28T11:29:57.731Z,8.50
2023-09-28T11:31:10.507Z,8.88
2023-09-28T11:32:13.717Z,9.00
2023-09-28T11:33:17.171Z,6.75
2023-09-28T11:34:33.074Z,9.25
2023-09-28T11:35:36.146Z,5.37
2023-09-28T11:36:39.388Z,7.62
2023-09-28T11:37:42.516Z,8.88
2023-09-28T11:38:45.692Z,16.69
2023-09-28T11:39:48.524Z,12.94
2023-09-28T11:40:52.932Z,9.00
2023-09-28T11:41:57.553Z,9.50
2023-09-28T11:43:02.085Z,9.75
2023-09-28T11:44:05.431Z,9.25
2023-09-28T11:45:08.574Z,12.50
2023-09-28T11:46:15.396Z,10.63
2023-09-28T11:47:22.677Z,7.75
2023-09-28T11:48:26.154Z,6.25
2023-09-28T11:49:29.075Z,8.69
2023-09-28T11:50:32.695Z,8.63
2023-09-28T11:51:36.421Z,8.88
2023-09-28T11:52:39.432Z,8.50
2023-09-28T11:53:43.346Z,11.12
2023-09-28T11:54:46.263Z,9.38
2023-09-28T11:55:49.327Z,10.75
2023-09-28T11:56:52.734Z,17.87
2023-09-28T11:57:58.862Z,10.75
2023-09-28T11:59:02.176Z,8.00
2023-09-28T12:00:06.056Z,8.56
2023-09-28T12:01:09.077Z,6.37
2023-09-28T12:02:13.897Z,9.69
2023-09-28T12:03:19.540Z,9.19
2023-09-28T12:04:22.686Z,9.19
2023-09-28T12:05:25.667Z,7.44
2023-09-28T12:06:29.065Z,9.31
2023-09-28T12:07:31.955Z,8.13
2023-09-28T12:08:34.904Z,8.31
2023-09-28T12:09:42.369Z,7.56
2023-09-28T12:11:01.728Z,8.94
2023-09-28T12:12:32.461Z,8.88
2023-09-28T12:13:28.532Z,10.50
2023-09-28T12:14:39.773Z,9.63
2023-09-28T12:16:03.277Z,9.13
2023-09-28T12:17:06.293Z,9.56
2023-09-28T12:18:09.373Z,10.13
2023-09-28T12:19:12.345Z,10.63
2023-09-28T12:20:17.496Z,9.38
2023-09-28T12:21:20.550Z,8.13
2023-09-28T12:22:23.539Z,8.75
2023-09-28T12:23:29.498Z,1.81
2023-09-28T12:24:32.530Z,10.19
2023-09-28T12:25:35.656Z,8.19
2023-09-28T12:26:38.739Z,9.69
2023-09-28T12:27:41.667Z,9.88
2023-09-28T12:28:44.657Z,7.69
2023-09-28T12:29:47.592Z,10.69
2023-09-28T12:30:50.642Z,9.13
2023-09-28T12:31:53.465Z,8.50
2023-09-28T12:32:56.423Z,9.63
2023-09-28T12:33:59.433Z,8.75
2023-09-28T12:35:02.411Z,8.56
2023-09-28T12:36:05.730Z,10.25
2023-09-28T12:37:08.644Z,6.87
2023-09-28T12:38:11.505Z,8.75
2023-09-28T12:39:16.008Z,8.44
2023-09-28T12:40:19.149Z,8.31
2023-09-28T12:41:23.834Z,6.75
2023-09-28T12:42:26.951Z,9.25
2023-09-28T12:43:29.797Z,8.75
2023-09-28T12:44:32.655Z,8.13
2023-09-28T12:45:36.169Z,8.00
2023-09-28T12:46:39.377Z,9.31
2023-09-28T12:47:43.048Z,9.31
2023-09-28T12:48:48.414Z,9.00
2023-09-28T12:49:51.470Z,8.19
2023-09-28T12:50:54.490Z,8.63
2023-09-28T12:51:57.424Z,10.13
2023-09-28T12:53:00.842Z,9.75
2023-09-28T12:54:03.833Z,9.94
2023-09-28T12:55:08.314Z,8.94
2023-09-28T12:56:11.948Z,10.00
2023-09-28T12:57:15.003Z,9.63
2023-09-28T12:58:17.987Z,9.31
2023-09-28T12:59:20.916Z,10.69
2023-09-28T13:00:24.095Z,10.81
2023-09-28T13:01:27.157Z,10.69
2023-09-28T13:02:30.283Z,9.63
2023-09-28T13:03:35.061Z,10.19
2023-09-28T13:04:38.268Z,8.81
2023-09-28T13:05:41.533Z,10.75
2023-09-28T13:06:44.805Z,10.44
2023-09-28T13:07:49.224Z,10.19
2023-09-28T13:08:52.150Z,9.56
2023-09-28T13:09:59.028Z,7.44
2023-09-28T13:11:02.311Z,9.13
2023-09-28T13:12:05.355Z,9.06
2023-09-28T13:13:08.207Z,8.06
2023-09-28T13:14:11.080Z,8.88
2023-09-28T13:15:14.176Z,5.81
2023-09-28T13:16:18.804Z,9.38
2023-09-28T13:17:21.738Z,8.38
2023-09-28T13:18:24.733Z,8.94
2023-09-28T13:19:27.640Z,31.94
2023-09-28T13:20:30.783Z,14.06
2023-09-28T13:21:33.853Z,8.38
2023-09-28T13:22:38.176Z,11.19
2023-09-28T13:23:42.860Z,9.44
2023-09-28T13:24:45.736Z,6.69
2023-09-28T13:25:48.589Z,9.00
2023-09-28T13:26:51.648Z,6.94
2023-09-28T13:27:54.692Z,10.06
2023-09-28T13:28:59.934Z,7.62
2023-09-28T13:30:02.565Z,5.19
2023-09-28T13:31:05.481Z,7.06
2023-09-28T13:32:08.526Z,7.12
2023-09-28T13:33:11.588Z,8.06
2023-09-28T13:34:15.141Z,6.50
2023-09-28T13:35:18.463Z,7.00
2023-09-28T13:36:21.602Z,7.19
2023-09-28T13:37:24.633Z,6.50
2023-09-28T13:38:27.654Z,6.50
2023-09-28T13:39:30.641Z,6.37
2023-09-28T13:40:33.573Z,7.00
2023-09-28T13:41:37.955Z,6.31
2023-09-28T13:42:41.009Z,7.00
2023-09-28T13:43:44.159Z,6.50
2023-09-28T13:44:48.602Z,6.50
2023-09-28T13:45:53.462Z,9.38
2023-09-28T13:47:03.319Z,8.63
2023-09-28T13:48:02.396Z,3.31